createdAt,value
2019-05-18T00:01:39.565Z,9.23
2019-05-18T00:04:07.280Z,7.23
2019-05-18T00:06:34.916Z,4.30
2019-05-18T00:09:04.544Z,6.10
2019-05-18T00:11:32.684Z,5.97
2019-05-18T00:14:00.367Z,10.93
2019-05-18T00:16:28.174Z,4.73
2019-05-18T00:18:56.270Z,11.00
2019-05-18T00:21:23.929Z,21.27
2019-05-18T00:23:51.658Z,8.13
2019-05-18T00:26:19.325Z,9.37
2019-05-18T00:28:46.964Z,9.93
2019-05-18T00:31:14.929Z,3.97
2019-05-18T00:33:42.650Z,10.20
2019-05-18T00:36:10.620Z,6.43
2019-05-18T00:38:38.278Z,6.97
2019-05-18T00:41:05.933Z,7.63
2019-05-18T00:43:33.657Z,8.30
2019-05-18T00:46:01.324Z,8.80
2019-05-18T00:48:29.382Z,12.70
2019-05-18T00:50:57.061Z,6.33
2019-05-18T00:53:24.782Z,5.83
2019-05-18T00:55:52.449Z,7.53
2019-05-18T00:58:20.215Z,9.43
2019-05-18T01:00:48.294Z,5.87
2019-05-18T01:03:16.366Z,10.80
2019-05-18T01:05:44.499Z,9.00
2019-05-18T01:08:12.350Z,5.10
2019-05-18T01:10:40.043Z,9.97
2019-05-18T01:13:07.724Z,8.27
2019-05-18T01:15:35.435Z,4.67
2019-05-18T01:18:03.140Z,8.93
2019-05-18T01:20:30.792Z,5.50
2019-05-18T01:22:58.537Z,12.93
2019-05-18T01:25:26.314Z,5.03
2019-05-18T01:27:53.949Z,9.77
2019-05-18T01:30:21.743Z,12.03
2019-05-18T01:32:49.383Z,6.17
2019-05-18T01:35:17.465Z,8.27
2019-05-18T01:37:45.415Z,8.23
2019-05-18T01:40:13.135Z,8.47
2019-05-18T01:42:40.843Z,4.80
2019-05-18T01:45:16.891Z,8.20
2019-05-18T01:47:38.023Z,6.23
2019-05-18T01:50:06.186Z,4.23
2019-05-18T01:52:34.266Z,9.00
2019-05-18T01:55:01.975Z,6.97
2019-05-18T01:57:29.731Z,7.37
2019-05-18T01:59:57.487Z,6.93
2019-05-18T02:02:25.229Z,10.17
2019-05-18T02:04:52.906Z,7.17
2019-05-18T02:07:20.782Z,4.23
2019-05-18T02:09:48.735Z,7.63
2019-05-18T02:12:16.429Z,6.63
2019-05-18T02:14:44.179Z,4.03
2019-05-18T02:17:12.209Z,10.83
2019-05-18T02:19:39.912Z,6.27
2019-05-18T02:22:07.582Z,10.23
2019-05-18T02:24:35.625Z,15.77
2019-05-18T02:27:03.401Z,5.10
2019-05-18T02:29:31.080Z,11.60
2019-05-18T02:31:58.783Z,7.80
2019-05-18T02:34:26.493Z,9.77
2019-05-18T02:36:54.522Z,14.17
2019-05-18T02:39:22.279Z,7.47
2019-05-18T02:41:50.400Z,8.70
2019-05-18T02:44:18.550Z,4.90
2019-05-18T02:46:46.278Z,8.97
2019-05-18T02:49:14.438Z,9.73
2019-05-18T02:51:42.579Z,9.27
2019-05-18T02:54:10.266Z,9.23
2019-05-18T02:56:38.178Z,10.93
2019-05-18T02:59:05.875Z,7.37
2019-05-18T03:01:33.571Z,7.43
2019-05-18T03:04:01.550Z,9.77
2019-05-18T03:06:29.617Z,8.27
2019-05-18T03:08:57.352Z,16.10
2019-05-18T03:11:25.234Z,9.40
2019-05-18T03:13:53.042Z,9.73
2019-05-18T03:16:20.775Z,7.60
2019-05-18T03:19:06.278Z,9.60
2019-05-18T03:21:18.004Z,8.50
2019-05-18T03:23:45.675Z,13.23
2019-05-18T03:26:13.742Z,10.13
2019-05-18T03:28:41.368Z,7.17
2019-05-18T03:31:09.351Z,14.70
2019-05-18T03:33:37.028Z,12.37
2019-05-18T03:36:05.419Z,6.58
2019-05-18T03:38:33.251Z,11.13
2019-05-18T03:41:01.224Z,10.53
2019-05-18T03:43:29.318Z,9.83
2019-05-18T03:45:56.958Z,11.50
2019-05-18T03:48:24.643Z,10.17
2019-05-18T03:50:52.378Z,12.63
2019-05-18T03:53:20.042Z,11.87
2019-05-18T03:55:47.721Z,10.17
2019-05-18T03:58:15.459Z,10.67
2019-05-18T04:00:43.831Z,14.73
2019-05-18T04:03:11.865Z,9.97
2019-05-18T04:05:39.578Z,8.73
2019-05-18T04:08:07.457Z,12.27
2019-05-18T04:10:35.191Z,16.20
2019-05-18T04:13:03.258Z,14.63
2019-05-18T04:15:31.320Z,11.13
2019-05-18T04:17:59.010Z,9.63
2019-05-18T04:20:26.751Z,21.20
2019-05-18T04:22:54.918Z,9.80
2019-05-18T04:25:23.139Z,9.67
2019-05-18T04:27:50.764Z,10.33
2019-05-18T04:30:18.956Z,16.30
2019-05-18T04:32:46.610Z,8.90
2019-05-18T04:35:14.893Z,10.57
2019-05-18T04:37:42.546Z,14.87
2019-05-18T04:40:10.327Z,10.23
2019-05-18T04:42:38.053Z,10.43
2019-05-18T04:45:06.937Z,15.53
2019-05-18T04:47:35.054Z,6.97
2019-05-18T04:50:05.884Z,4.70
2019-05-18T04:52:32.487Z,5.07
2019-05-18T04:55:00.688Z,11.43
2019-05-18T04:57:28.588Z,8.77
2019-05-18T04:59:56.338Z,12.70
2019-05-18T05:02:24.446Z,5.40
2019-05-18T05:04:56.412Z,11.63
2019-05-18T05:07:21.561Z,6.93
2019-05-18T05:09:49.276Z,7.40
2019-05-18T05:12:17.352Z,6.47
2019-05-18T05:14:45.017Z,13.70
2019-05-18T05:17:13.082Z,6.13
2019-05-18T05:19:40.856Z,9.83
2019-05-18T05:22:08.776Z,18.30
2019-05-18T05:24:36.692Z,7.00
2019-05-18T05:27:04.790Z,6.40
2019-05-18T05:29:32.423Z,8.07
2019-05-18T05:32:00.064Z,9.37
2019-05-18T05:34:27.827Z,5.77
2019-05-18T05:36:55.520Z,9.97
2019-05-18T05:39:23.592Z,10.10
2019-05-18T05:41:51.334Z,4.17
2019-05-18T05:44:19.370Z,9.53
2019-05-18T05:46:47.026Z,6.20
2019-05-18T05:49:14.670Z,7.73
2019-05-18T05:51:42.455Z,8.63
2019-05-18T05:54:10.199Z,5.60
2019-05-18T05:56:37.906Z,4.80
2019-05-18T05:59:05.588Z,7.40
2019-05-18T06:01:33.773Z,9.60
2019-05-18T06:04:01.791Z,4.57
2019-05-18T06:06:29.790Z,4.20
2019-05-18T06:08:57.479Z,6.27
2019-05-18T06:11:25.143Z,5.97
2019-05-18T06:13:52.884Z,5.97
2019-05-18T06:16:20.568Z,4.30
2019-05-18T06:18:48.726Z,4.23
2019-05-18T06:21:16.382Z,4.97
2019-05-18T06:23:44.379Z,6.93
2019-05-18T06:26:12.129Z,4.70
2019-05-18T06:28:39.809Z,5.23
2019-05-18T06:31:07.588Z,2.77
2019-05-18T06:33:35.315Z,4.37
2019-05-18T06:36:02.956Z,6.47
2019-05-18T06:38:31.359Z,8.70
2019-05-18T06:40:59.021Z,4.90
2019-05-18T06:43:26.697Z,6.70
2019-05-18T06:45:54.647Z,5.33
2019-05-18T06:48:22.333Z,4.80
2019-05-18T06:51:04.961Z,5.87
2019-05-18T06:53:23.403Z,5.30
2019-05-18T06:55:51.007Z,7.87
2019-05-18T06:58:20.468Z,6.40
2019-05-18T07:00:48.126Z,6.77
2019-05-18T07:03:16.295Z,7.00
2019-05-18T07:05:43.982Z,7.93
2019-05-18T07:08:11.709Z,4.10
2019-05-18T07:10:39.735Z,3.20
2019-05-18T07:13:07.398Z,2.17
2019-05-18T07:15:35.137Z,6.47
2019-05-18T07:18:03.146Z,2.77
2019-05-18T07:20:31.138Z,3.77
2019-05-18T07:22:59.125Z,3.47
2019-05-18T07:25:26.859Z,2.73
2019-05-18T07:27:55.021Z,4.53
2019-05-18T07:30:22.731Z,2.50
2019-05-18T07:32:50.421Z,4.10
2019-05-18T07:35:18.347Z,2.23
2019-05-18T07:37:46.336Z,4.70
2019-05-18T07:40:14.544Z,11.50
2019-05-18T07:42:42.712Z,6.33
2019-05-18T07:45:10.750Z,1.50
2019-05-18T07:47:38.445Z,3.13
2019-05-18T07:50:07.538Z,8.33
2019-05-18T07:52:35.713Z,6.60
2019-05-18T07:55:04.125Z,5.23
2019-05-18T07:57:32.255Z,3.23
2019-05-18T08:00:00.314Z,6.17
2019-05-18T08:02:28.363Z,3.00
2019-05-18T08:04:56.026Z,3.67
2019-05-18T08:07:23.896Z,5.30
2019-05-18T08:09:51.552Z,4.20
2019-05-18T08:12:19.259Z,5.73
2019-05-18T08:14:47.398Z,2.60
2019-05-18T08:17:15.033Z,2.13
2019-05-18T08:19:42.699Z,2.93
2019-05-18T08:22:10.723Z,2.97
2019-05-18T08:24:38.368Z,1.37
2019-05-18T08:27:06.085Z,1.80
2019-05-18T08:29:33.850Z,3.40
2019-05-18T08:32:01.521Z,5.77
2019-05-18T08:34:29.395Z,0.70
2019-05-18T08:36:57.469Z,2.07
2019-05-18T16:22:33.453Z,1.90
2019-05-18T16:25:01.305Z,1.20
2019-05-18T16:27:29.045Z,1.53
2019-05-18T16:29:56.858Z,2.50
2019-05-18T16:32:24.672Z,2.20
2019-05-18T16:34:52.492Z,2.10
2019-05-18T16:37:20.367Z,1.90
2019-05-18T16:39:48.139Z,3.60
2019-05-18T16:42:16.006Z,0.30
2019-05-18T16:44:43.761Z,2.27
2019-05-18T16:47:11.544Z,1.97
2019-05-18T16:49:39.306Z,4.70
2019-05-18T16:52:07.011Z,2.53
2019-05-18T16:54:34.731Z,1.20
2019-05-18T16:57:02.493Z,1.13
2019-05-18T16:59:30.243Z,1.27
2019-05-18T17:01:58.030Z,1.17
2019-05-18T17:04:25.673Z,3.93
2019-05-18T17:06:53.558Z,1.73
2019-05-18T17:09:21.337Z,2.00
2019-05-18T17:11:49.098Z,1.63
2019-05-18T17:14:17.056Z,1.50
2019-05-18T17:16:44.707Z,1.23
2019-05-18T17:19:12.496Z,1.80
2019-05-18T17:21:40.261Z,1.73
2019-05-18T17:24:08.021Z,1.13
2019-05-18T17:26:50.063Z,1.47
2019-05-18T17:29:05.111Z,2.23
2019-05-18T17:31:32.761Z,1.63
2019-05-18T17:34:00.631Z,2.20
2019-05-18T17:36:28.494Z,1.77
2019-05-18T17:38:56.255Z,1.00
2019-05-18T17:41:24.128Z,1.90
2019-05-18T17:43:51.773Z,0.40
2019-05-18T17:46:19.666Z,1.00
2019-05-18T17:48:47.425Z,2.23
2019-05-18T17:51:15.052Z,2.67
2019-05-18T17:53:42.845Z,1.13
2019-05-18T17:56:10.621Z,1.77
2019-05-18T17:58:38.385Z,2.23
2019-05-18T18:01:06.256Z,0.57
2019-05-18T18:03:34.118Z,2.37
2019-05-18T18:06:01.897Z,0.87
2019-05-18T18:08:29.610Z,2.13
2019-05-18T18:10:57.423Z,2.03
2019-05-18T18:13:25.286Z,3.30
2019-05-18T18:15:53.050Z,3.37
2019-05-18T18:18:20.802Z,5.20
2019-05-18T18:20:48.692Z,18.23
2019-05-18T18:23:16.558Z,19.17
2019-05-18T18:25:44.205Z,22.67
2019-05-18T18:28:11.981Z,8.17
2019-05-18T18:30:39.654Z,12.70
2019-05-18T18:33:07.323Z,13.43
2019-05-18T18:35:35.070Z,10.27
2019-05-18T18:38:02.842Z,9.40
2019-05-18T18:40:30.923Z,10.50
2019-05-18T18:42:58.741Z,10.53
2019-05-18T18:45:26.427Z,8.63
2019-05-18T18:47:54.104Z,19.40
2019-05-18T18:50:21.814Z,11.53
2019-05-18T18:52:49.550Z,8.50
2019-05-18T18:55:17.323Z,12.23
2019-05-18T18:57:45.173Z,8.40
2019-05-18T19:00:13.341Z,5.77
2019-05-18T19:02:41.238Z,5.33
2019-05-18T19:05:09.202Z,2.20
2019-05-18T19:07:36.899Z,3.17
2019-05-18T19:10:05.828Z,3.92
2019-05-18T19:12:33.811Z,3.20
2019-05-18T19:15:01.686Z,3.70
2019-05-18T19:17:31.158Z,6.67
2019-05-18T19:19:58.894Z,3.67
2019-05-18T19:22:26.838Z,3.40
2019-05-18T19:24:55.920Z,8.87
2019-05-18T19:27:23.771Z,6.17
2019-05-18T19:29:51.667Z,4.57
2019-05-18T19:32:19.384Z,4.33
2019-05-18T19:34:47.091Z,5.03
2019-05-18T19:37:14.962Z,2.27
2019-05-18T19:39:42.834Z,4.37
2019-05-18T19:42:10.580Z,5.27
2019-05-18T19:44:38.316Z,2.93
2019-05-18T19:47:06.025Z,3.97
2019-05-18T19:49:33.758Z,3.23
2019-05-18T19:52:01.384Z,2.27
2019-05-18T19:54:29.112Z,1.50
2019-05-18T19:56:56.990Z,0.83
2019-05-18T19:59:24.858Z,2.97
2019-05-18T20:01:52.763Z,3.73
2019-05-18T20:04:20.491Z,2.17
2019-05-18T20:06:48.318Z,1.80
2019-05-18T20:09:16.022Z,2.37
2019-05-18T20:11:43.787Z,2.17
2019-05-18T20:14:11.655Z,3.83
2019-05-18T20:16:39.535Z,1.03
2019-05-18T20:19:07.268Z,2.53
2019-05-18T20:21:35.077Z,3.70
2019-05-18T20:24:02.817Z,1.73
2019-05-18T20:26:30.493Z,1.30
2019-05-18T20:28:58.352Z,2.13
2019-05-18T20:31:26.119Z,1.47
2019-05-18T20:33:53.773Z,3.90
2019-05-18T20:36:21.456Z,1.00
2019-05-18T20:38:49.416Z,0.93
2019-05-18T20:41:17.183Z,1.93
2019-05-18T20:43:44.860Z,0.77
2019-05-18T20:46:12.601Z,1.10
2019-05-18T20:48:40.374Z,0.30
2019-05-18T20:51:08.437Z,0.40
2019-05-18T20:53:36.108Z,1.17
2019-05-18T20:56:03.782Z,0.40
2019-05-18T20:58:40.208Z,0.63
2019-05-18T21:01:01.044Z,0.40
2019-05-18T21:03:28.814Z,0.23
2019-05-18T21:05:56.563Z,1.67
2019-05-18T21:08:24.343Z,0.30
2019-05-18T21:10:52.108Z,1.13
2019-05-18T21:13:19.805Z,0.73
2019-05-18T21:15:47.538Z,3.53
2019-05-18T21:18:15.491Z,0.87
2019-05-18T21:20:43.480Z,0.80
2019-05-18T21:23:11.250Z,0.63
2019-05-18T21:25:39.025Z,2.17
2019-05-18T21:28:06.886Z,0.73
2019-05-18T21:30:34.644Z,1.03
2019-05-18T21:33:02.420Z,0.70
2019-05-18T21:35:30.169Z,0.60
2019-05-18T21:37:57.833Z,0.50
2019-05-18T21:40:26.323Z,1.50
2019-05-18T21:42:54.101Z,0.87
2019-05-18T21:45:22.161Z,1.50
2019-05-18T21:47:49.883Z,1.70
2019-05-18T21:50:17.540Z,0.83
2019-05-18T21:52:45.295Z,1.23
2019-05-18T21:55:13.022Z,0.60
2019-05-18T21:57:40.786Z,1.17
2019-05-18T22:00:08.979Z,0.57
2019-05-18T22:02:36.724Z,1.57
2019-05-18T22:05:05.012Z,2.50
2019-05-18T22:07:33.638Z,1.07
2019-05-18T22:10:01.443Z,0.40
2019-05-18T22:12:29.328Z,0.90
2019-05-18T22:14:57.202Z,0.63
2019-05-18T22:17:25.131Z,1.10
2019-05-18T22:19:53.139Z,0.87
2019-05-18T22:22:20.798Z,0.93
2019-05-18T22:24:48.575Z,0.60
2019-05-18T22:27:16.332Z,1.57
2019-05-18T22:29:44.095Z,3.60
2019-05-18T22:32:12.221Z,0.47
2019-05-18T22:34:40.141Z,0.23
2019-05-18T22:37:08.019Z,1.60
2019-05-18T22:39:37.446Z,0.43
2019-05-18T22:42:05.537Z,1.85
2019-05-18T22:44:33.344Z,3.60
2019-05-18T22:47:01.236Z,0.80
2019-05-18T22:49:28.990Z,1.90
2019-05-18T22:51:56.604Z,0.53
2019-05-18T22:54:24.331Z,3.83
2019-05-18T22:56:52.044Z,1.33
2019-05-18T22:59:19.859Z,4.60
2019-05-18T23:01:47.613Z,5.00
2019-05-18T23:04:15.482Z,0.63
2019-05-18T23:06:43.253Z,2.03
2019-05-18T23:09:11.119Z,1.60
2019-05-18T23:11:38.869Z,0.57
2019-05-18T23:14:06.644Z,1.30
2019-05-18T23:16:34.414Z,0.17
2019-05-18T23:19:02.298Z,0.67
2019-05-18T23:21:29.944Z,1.53
2019-05-18T23:23:57.713Z,1.03
2019-05-18T23:26:25.585Z,1.00
2019-05-18T23:28:53.563Z,0.67
2019-05-18T23:31:21.331Z,2.67
2019-05-18T23:33:48.994Z,2.07
2019-05-18T23:36:16.749Z,2.23
2019-05-18T23:38:44.617Z,0.50
2019-05-18T23:41:12.301Z,1.03
2019-05-18T23:43:39.953Z,0.90
2019-05-18T23:46:07.708Z,1.17
2019-05-18T23:48:37.552Z,0.70
2019-05-18T23:51:05.740Z,1.03
2019-05-18T23:53:33.565Z,0.70
2019-05-18T23:56:01.333Z,2.10
2019-05-18T23:58:28.993Z,3.50
